Time;durP1;ratioP1;P1;durP2;ratioP2;P2;SDS_P1;SDS_P2;PMS_P1;PMS_P2;Temp;Humidity;BMP_temperature;BMP_pressure;BME280_temperature;BME280_humidity;BME280_pressure;Samples;Min_cycle;Max_cycle;Signal;HPM_P1;HPM_P2
2021/11/23 00:01:44;;;;;;;13.02;4.95;;;;;;;14.81;40.25;102429.50;4438418;32;20083;-71
2021/11/23 00:04:09;;;;;;;10.70;4.55;;;;;;;14.80;40.24;102432.75;4439147;32;20096;-71
2021/11/23 00:06:37;;;;;;;13.30;4.87;;;;;;;14.96;40.14;102435.75;4436170;32;20097;-71
2021/11/23 00:09:03;;;;;;;12.27;4.85;;;;;;;14.91;40.38;102436.25;4433047;32;20048;-71
2021/11/23 00:11:29;;;;;;;11.60;4.60;;;;;;;15.00;40.10;102436.53;4436122;32;20498;-71
2021/11/23 00:13:55;;;;;;;11.52;5.07;;;;;;;15.03;39.84;102442.12;4426778;32;20067;-71
2021/11/23 00:16:21;;;;;;;11.15;4.97;;;;;;;14.95;39.93;102445.50;4425930;32;20064;-71
2021/11/23 00:18:48;;;;;;;11.80;4.80;;;;;;;15.03;39.93;102444.94;4428086;32;20093;-71
2021/11/23 00:21:15;;;;;;;16.77;5.68;;;;;;;15.03;39.77;102447.78;4427107;32;20533;-71
2021/11/23 00:23:42;;;;;;;11.35;5.62;;;;;;;15.15;39.77;102438.69;4425900;32;20374;-70
2021/11/23 00:26:08;;;;;;;13.52;4.75;;;;;;;15.10;39.54;102439.16;4426409;32;20094;-70
2021/11/23 00:28:34;;;;;;;15.02;5.60;;;;;;;15.15;39.68;102437.88;4427554;32;20711;-70
2021/11/23 00:31:00;;;;;;;11.38;4.95;;;;;;;14.94;39.94;102435.41;4426810;32;20077;-70
2021/11/23 00:33:31;;;;;;;16.58;6.15;;;;;;;15.16;39.86;102431.00;4425045;32;20038;-70
2021/11/23 00:35:58;;;;;;;12.20;6.15;;;;;;;15.16;39.88;102428.94;4424824;32;20546;-70
2021/11/23 00:38:24;;;;;;;17.17;6.00;;;;;;;15.13;39.90;102437.53;4428111;32;20639;-70
2021/11/23 00:40:50;;;;;;;12.35;5.80;;;;;;;15.05;39.93;102434.00;4427501;32;20729;-69
2021/11/23 00:43:16;;;;;;;13.32;5.20;;;;;;;15.00;40.05;102434.47;4426189;32;20080;-69
2021/11/23 00:45:42;;;;;;;13.20;6.20;;;;;;;15.08;40.31;102438.00;4426773;32;20091;-70
2021/11/23 00:48:09;;;;;;;15.75;5.43;;;;;;;15.20;39.89;102438.22;4425823;32;20034;-70
2021/11/23 00:50:35;;;;;;;11.65;5.07;;;;;;;15.20;40.17;102437.41;4427134;32;20041;-70
2021/11/23 00:53:02;;;;;;;14.55;5.18;;;;;;;15.07;40.10;102427.91;4426543;32;20370;-70
2021/11/23 00:55:30;;;;;;;10.75;4.93;;;;;;;15.26;39.74;102433.66;4426015;32;20060;-70
2021/11/23 00:57:56;;;;;;;14.65;5.65;;;;;;;15.40;39.69;102441.16;4426109;32;20190;-70
2021/11/23 01:00:23;;;;;;;13.30;5.90;;;;;;;15.16;39.85;102437.44;4426625;32;20072;-70
2021/11/23 01:02:49;;;;;;;13.05;5.90;;;;;;;15.08;40.00;102429.50;4427911;32;20112;-70
2021/11/23 01:05:15;;;;;;;13.70;5.62;;;;;;;14.96;40.33;102422.38;4426065;32;20041;-70
2021/11/23 01:07:41;;;;;;;11.27;5.47;;;;;;;15.05;40.33;102427.50;4422784;32;20069;-70
2021/11/23 01:10:09;;;;;;;13.43;6.25;;;;;;;15.04;40.38;102423.88;4425815;32;20416;-70
2021/11/23 01:12:36;;;;;;;11.95;5.50;;;;;;;15.21;40.37;102422.78;4425999;32;20087;-70
2021/11/23 01:15:05;;;;;;;13.40;5.70;;;;;;;14.92;40.82;102418.00;4428059;32;20060;-70
2021/11/23 01:17:30;;;;;;;16.98;6.37;;;;;;;15.11;40.72;102420.13;4424834;32;20026;-69
2021/11/23 01:19:56;;;;;;;12.82;5.32;;;;;;;14.99;40.71;102421.53;4426068;32;20064;-69
2021/11/23 01:22:22;;;;;;;13.25;5.68;;;;;;;14.82;40.95;102419.75;4426927;32;20630;-69
2021/11/23 01:24:48;;;;;;;13.38;5.60;;;;;;;14.87;40.92;102409.97;4424705;32;20037;-70
2021/11/23 01:27:14;;;;;;;12.93;6.07;;;;;;;14.90;40.86;102421.25;4426657;32;20042;-69
2021/11/23 01:29:41;;;;;;;10.80;4.97;;;;;;;14.87;41.05;102415.63;4424430;32;20355;-69
2021/11/23 01:32:08;;;;;;;11.60;4.78;;;;;;;14.90;40.99;102412.75;4425826;32;20037;-69
2021/11/23 01:34:34;;;;;;;11.30;5.47;;;;;;;14.81;40.76;102406.00;4424548;32;20231;-69
2021/11/23 01:37:00;;;;;;;10.18;5.07;;;;;;;14.76;41.30;102407.28;4424726;32;20160;-69
2021/11/23 01:39:26;;;;;;;15.02;5.07;;;;;;;14.67;41.37;102409.06;4425873;32;20022;-69
2021/11/23 01:41:53;;;;;;;19.60;7.62;;;;;;;14.67;41.62;102400.56;4425151;32;20056;-69
2021/11/23 01:44:19;;;;;;;16.20;6.40;;;;;;;14.65;41.54;102405.84;4428350;32;20395;-69
2021/11/23 01:46:45;;;;;;;11.63;4.45;;;;;;;14.69;41.28;102400.91;4426114;32;20029;-69
2021/11/23 01:49:10;;;;;;;7.70;3.92;;;;;;;14.41;41.93;102399.28;4424782;32;20512;-69
2021/11/23 01:51:37;;;;;;;10.38;4.10;;;;;;;14.59;41.24;102390.56;4428229;32;20436;-70
2021/11/23 01:54:02;;;;;;;11.25;4.10;;;;;;;14.52;41.68;102397.13;4428014;32;20072;-69
2021/11/23 01:56:28;;;;;;;9.70;3.40;;;;;;;14.57;41.66;102396.63;4421296;32;20581;-70
2021/11/23 01:58:55;;;;;;;7.25;3.78;;;;;;;14.60;41.47;102397.84;4425391;32;20018;-69
2021/11/23 02:01:22;;;;;;;12.18;3.95;;;;;;;14.56;41.44;102392.22;4426103;32;20046;-70
2021/11/23 02:03:49;;;;;;;9.35;3.78;;;;;;;14.67;41.41;102397.72;4428417;32;20428;-70
2021/11/23 02:06:14;;;;;;;7.68;3.45;;;;;;;14.53;41.41;102395.09;4422872;32;20470;-69
2021/11/23 02:08:40;;;;;;;8.90;3.35;;;;;;;14.54;41.64;102385.38;4425312;32;20065;-69
2021/11/23 02:11:06;;;;;;;10.10;3.30;;;;;;;14.66;41.66;102387.62;4425496;32;20095;-69
2021/11/23 02:13:33;;;;;;;8.20;3.03;;;;;;;14.48;41.93;102381.41;4426015;32;20074;-70
2021/11/23 02:16:00;;;;;;;7.00;3.42;;;;;;;14.49;41.78;102380.19;4423455;32;20107;-70
2021/11/23 02:18:27;;;;;;;7.82;2.90;;;;;;;14.51;41.91;102381.34;4425520;32;20061;-70
2021/11/23 02:20:54;;;;;;;10.00;3.87;;;;;;;14.66;41.39;102384.81;4425272;32;20029;-69
2021/11/23 02:23:21;;;;;;;10.88;3.83;;;;;;;14.71;41.61;102387.13;4426871;32;20149;-69
2021/11/23 02:25:48;;;;;;;12.82;3.92;;;;;;;14.65;41.75;102384.00;4427102;32;20073;-69
2021/11/23 02:28:14;;;;;;;8.35;3.00;;;;;;;14.72;41.57;102383.06;4421721;32;20056;-69
2021/11/23 02:30:46;;;;;;;7.87;2.87;;;;;;;14.60;41.76;102389.34;4425406;32;20205;-69
2021/11/23 02:33:15;;;;;;;8.73;3.25;;;;;;;14.86;41.55;102377.19;4425976;32;20073;-69
2021/11/23 02:35:42;;;;;;;11.05;3.75;;;;;;;14.81;41.63;102381.31;4423884;32;20419;-69
2021/11/23 02:38:09;;;;;;;8.77;3.87;;;;;;;14.56;41.99;102377.22;4426785;32;20084;-69
2021/11/23 02:40:35;;;;;;;9.57;4.30;;;;;;;14.59;42.02;102371.53;4425393;32;20030;-69
2021/11/23 02:43:01;;;;;;;9.65;4.50;;;;;;;14.41;41.91;102368.13;4426316;32;20532;-69
2021/11/23 02:45:28;;;;;;;11.30;4.25;;;;;;;14.60;42.09;102366.66;4423846;32;20549;-69
2021/11/23 02:47:56;;;;;;;9.25;4.45;;;;;;;14.59;41.99;102368.69;4426579;32;20061;-69
2021/11/23 02:50:25;;;;;;;7.72;3.78;;;;;;;14.73;42.22;102364.84;4424905;32;20065;-72
2021/11/23 02:52:52;;;;;;;7.18;2.97;;;;;;;14.58;42.44;102364.25;4427373;32;20414;-70
2021/11/23 02:55:21;;;;;;;5.97;3.30;;;;;;;14.62;42.23;102361.34;4427811;32;20081;-70
2021/11/23 02:57:47;;;;;;;6.22;2.97;;;;;;;14.56;42.33;102354.56;4423719;32;20069;-70
2021/11/23 03:00:17;;;;;;;9.82;3.08;;;;;;;14.43;42.38;102353.56;4426929;32;20049;-70
2021/11/23 03:02:44;;;;;;;12.15;4.45;;;;;;;14.56;42.27;102352.53;4423170;32;20057;-69
2021/11/23 03:05:11;;;;;;;7.78;3.58;;;;;;;14.38;42.58;102354.81;4425250;32;20060;-69
2021/11/23 03:07:37;;;;;;;7.60;3.87;;;;;;;14.26;42.54;102354.63;4425374;32;20160;-69
2021/11/23 03:10:07;;;;;;;10.70;3.95;;;;;;;14.16;42.88;102352.66;4421844;32;20128;-69
2021/11/23 03:12:33;;;;;;;10.45;3.83;;;;;;;14.16;43.16;102349.84;4427063;32;20112;-69
2021/11/23 03:14:59;;;;;;;13.32;4.75;;;;;;;14.14;43.17;102341.00;4426383;32;20474;-69
2021/11/23 03:17:25;;;;;;;8.00;3.50;;;;;;;14.07;43.23;102342.69;4423601;32;20269;-69
2021/11/23 03:19:51;;;;;;;11.30;4.40;;;;;;;14.07;43.29;102356.03;4424472;32;20090;-69
2021/11/23 03:22:18;;;;;;;8.45;3.83;;;;;;;14.00;43.29;102351.25;4426238;32;20450;-69
2021/11/23 03:24:45;;;;;;;13.30;3.62;;;;;;;14.07;43.40;102351.19;4423774;32;20030;-69
2021/11/23 03:27:11;;;;;;;8.70;3.45;;;;;;;14.08;43.40;102343.47;4422398;32;20084;-69
2021/11/23 03:29:38;;;;;;;9.25;4.37;;;;;;;13.86;43.51;102345.78;4424463;32;20065;-69
2021/11/23 03:32:06;;;;;;;10.45;3.87;;;;;;;13.93;43.44;102333.56;4423065;32;20062;-69
2021/11/23 03:34:37;;;;;;;13.25;4.15;;;;;;;13.95;43.37;102343.25;4425656;32;20146;-69
2021/11/23 03:37:05;;;;;;;13.38;4.03;;;;;;;13.87;43.56;102335.28;4423238;32;20034;-69
2021/11/23 03:39:30;;;;;;;10.55;4.43;;;;;;;13.89;43.57;102336.44;4423647;32;20029;-69
2021/11/23 03:41:56;;;;;;;9.73;3.37;;;;;;;13.68;43.82;102341.53;4424531;32;20372;-69
2021/11/23 03:44:22;;;;;;;9.90;3.37;;;;;;;13.68;43.75;102339.50;4424395;32;20285;-69
2021/11/23 03:46:47;;;;;;;12.35;4.15;;;;;;;13.59;44.05;102339.22;4423406;32;20038;-69
2021/11/23 03:49:13;;;;;;;11.48;3.83;;;;;;;13.63;43.83;102345.63;4423358;32;20064;-69
2021/11/23 03:51:38;;;;;;;9.57;3.70;;;;;;;13.51;44.04;102340.53;4426024;32;20431;-69
2021/11/23 03:54:04;;;;;;;10.52;3.45;;;;;;;13.37;44.24;102342.66;4428763;32;20059;-69
2021/11/23 03:56:30;;;;;;;11.20;3.33;;;;;;;13.25;44.49;102344.00;4428088;32;20148;-69
2021/11/23 03:58:55;;;;;;;8.57;3.25;;;;;;;13.13;44.88;102336.03;4424042;32;20115;-69
2021/11/23 04:01:21;;;;;;;10.85;2.90;;;;;;;12.99;45.01;102333.34;4425474;32;20127;-69
2021/11/23 04:03:47;;;;;;;7.05;2.97;;;;;;;13.05;45.05;102337.34;4426497;32;20086;-69
2021/11/23 04:06:12;;;;;;;7.35;3.15;;;;;;;13.04;45.03;102332.09;4425777;32;20108;-69
2021/11/23 04:08:38;;;;;;;10.68;3.25;;;;;;;12.90;45.38;102335.81;4427475;32;20025;-69
2021/11/23 04:11:04;;;;;;;7.72;2.45;;;;;;;12.95;45.32;102335.34;4429439;32;20018;-69
2021/11/23 04:13:31;;;;;;;12.60;3.50;;;;;;;12.90;45.42;102337.84;4425601;32;20482;-69
2021/11/23 04:16:02;;;;;;;7.07;3.35;;;;;;;12.82;45.56;102339.91;4424369;32;20073;-69
2021/11/23 04:18:28;;;;;;;8.48;3.08;;;;;;;12.86;45.48;102339.91;4425212;32;20477;-69
2021/11/23 04:20:53;;;;;;;9.45;2.87;;;;;;;12.77;45.64;102345.22;4430902;32;20529;-69
2021/11/23 04:23:19;;;;;;;12.50;3.78;;;;;;;12.71;45.73;102336.38;4428180;32;20090;-69
2021/11/23 04:25:45;;;;;;;7.87;2.62;;;;;;;12.64;45.82;102333.59;4429029;32;20089;-69
2021/11/23 04:28:11;;;;;;;6.50;2.45;;;;;;;12.77;45.42;102345.22;4429968;32;20026;-69
2021/11/23 04:30:36;;;;;;;7.12;3.00;;;;;;;12.53;45.72;102346.19;4429417;32;20064;-69
2021/11/23 04:33:02;;;;;;;6.20;2.15;;;;;;;12.57;45.61;102358.25;4427036;32;20091;-69
2021/11/23 04:35:28;;;;;;;6.60;2.60;;;;;;;12.45;46.05;102358.75;4424460;32;20072;-69
2021/11/23 04:37:53;;;;;;;5.07;2.22;;;;;;;12.51;45.74;102348.59;4424908;32;20077;-69
2021/11/23 04:40:19;;;;;;;7.75;2.40;;;;;;;12.38;46.03;102350.31;4425706;32;20033;-69
2021/11/23 04:42:45;;;;;;;9.65;3.28;;;;;;;12.22;46.53;102350.00;4426579;32;20583;-69
2021/11/23 04:45:13;;;;;;;6.07;2.53;;;;;;;12.10;46.56;102351.28;4424287;32;20368;-69
2021/11/23 04:47:39;;;;;;;5.80;2.15;;;;;;;12.38;46.10;102353.13;4428290;32;20077;-69
2021/11/23 04:50:08;;;;;;;8.27;2.58;;;;;;;12.29;46.16;102355.59;4429877;32;20146;-69
2021/11/23 04:52:34;;;;;;;6.87;2.40;;;;;;;12.34;46.32;102355.19;4424563;32;20035;-69
2021/11/23 04:55:00;;;;;;;6.18;1.80;;;;;;;12.01;46.70;102348.09;4427727;32;20165;-69
2021/11/23 04:57:26;;;;;;;6.15;2.10;;;;;;;11.97;46.51;102345.25;4428755;32;20441;-69
2021/11/23 04:59:52;;;;;;;3.70;2.00;;;;;;;12.00;46.47;102347.28;4427667;32;20041;-69
2021/11/23 05:02:19;;;;;;;5.07;1.83;;;;;;;11.96;46.68;102351.31;4423534;32;20423;-69
2021/11/23 05:04:46;;;;;;;5.45;1.60;;;;;;;12.02;46.48;102355.31;4425484;32;20052;-70
2021/11/23 05:07:12;;;;;;;4.18;1.80;;;;;;;12.00;46.47;102350.09;4425589;32;20060;-69
2021/11/23 05:09:38;;;;;;;5.07;2.55;;;;;;;12.11;46.28;102347.22;4426608;32;20026;-70
2021/11/23 05:12:05;;;;;;;5.05;1.92;;;;;;;11.81;46.55;102341.28;4425338;32;20040;-70
2021/11/23 05:14:30;;;;;;;9.55;2.20;;;;;;;11.94;46.49;102345.28;4424204;32;20101;-70
2021/11/23 05:16:56;;;;;;;4.18;2.33;;;;;;;11.93;46.50;102341.66;4426013;32;20441;-70
2021/11/23 05:19:23;;;;;;;4.15;1.87;;;;;;;11.64;47.65;102345.00;4427126;32;20185;-70
2021/11/23 05:21:49;;;;;;;6.22;2.65;;;;;;;11.64;47.49;102350.62;4430018;32;20394;-70
2021/11/23 05:24:14;;;;;;;6.15;2.00;;;;;;;11.69;47.35;102345.37;4422490;32;20420;-70
2021/11/23 05:26:41;;;;;;;5.28;2.10;;;;;;;11.65;47.21;102341.75;4425631;32;20029;-70
2021/11/23 05:29:07;;;;;;;12.02;4.12;;;;;;;11.80;46.99;102356.63;4427322;32;20077;-70
2021/11/23 05:31:33;;;;;;;4.20;2.28;;;;;;;11.85;47.01;102353.41;4427936;32;20069;-70
2021/11/23 05:34:01;;;;;;;6.60;2.37;;;;;;;11.87;46.74;102348.94;4425825;32;20045;-70
2021/11/23 05:36:27;;;;;;;5.05;2.08;;;;;;;11.97;46.73;102350.12;4425839;32;20073;-70
2021/11/23 05:38:53;;;;;;;5.87;2.25;;;;;;;11.72;46.75;102346.59;4427212;32;20116;-70
2021/11/23 05:41:18;;;;;;;5.07;2.10;;;;;;;11.72;47.14;102343.78;4426671;32;20034;-70
2021/11/23 05:43:44;;;;;;;6.22;2.40;;;;;;;11.86;46.89;102346.53;4425280;32;20055;-69
2021/11/23 05:46:10;;;;;;;10.82;2.75;;;;;;;11.92;46.76;102342.06;4425745;32;20538;-70
2021/11/23 05:48:36;;;;;;;4.78;2.35;;;;;;;11.94;46.50;102342.47;4423131;32;20095;-69
2021/11/23 05:51:03;;;;;;;7.97;2.70;;;;;;;11.97;46.59;102336.03;4424947;32;20778;-69
2021/11/23 05:53:39;;;;;;;12.68;3.03;;;;;;;12.08;46.46;102339.56;4426504;32;20396;-69
2021/11/23 05:56:06;;;;;;;10.02;2.87;;;;;;;12.39;46.05;102338.59;4427850;32;20022;-70
2021/11/23 05:58:32;;;;;;;6.80;2.83;;;;;;;12.25;46.64;102340.72;4419380;32;20085;-70
2021/11/23 06:00:59;;;;;;;8.00;3.05;;;;;;;12.25;46.82;102341.53;4428324;32;20092;-70
2021/11/23 06:03:25;;;;;;;5.80;3.30;;;;;;;12.45;46.32;102345.41;4428634;32;20136;-70
2021/11/23 06:05:50;;;;;;;10.82;4.55;;;;;;;12.56;45.84;102340.53;4425251;32;20076;-70
2021/11/23 06:08:16;;;;;;;6.53;2.45;;;;;;;12.64;45.21;102344.87;4423052;32;20414;-70
2021/11/23 06:10:42;;;;;;;5.87;3.05;;;;;;;12.85;45.05;102344.72;4423093;32;20061;-70
2021/11/23 06:13:10;;;;;;;7.10;3.25;;;;;;;12.97;45.14;102344.22;4424807;32;20069;-70
2021/11/23 06:15:37;;;;;;;7.50;4.62;;;;;;;12.60;45.42;102351.78;4425418;32;20029;-69
2021/11/23 06:18:03;;;;;;;7.22;3.60;;;;;;;12.95;44.84;102346.66;4424213;32;20072;-70
2021/11/23 06:20:30;;;;;;;9.80;3.50;;;;;;;13.13;44.96;102352.22;4425645;32;20022;-69
2021/11/23 06:22:58;;;;;;;9.50;3.67;;;;;;;13.37;44.83;102351.97;4426165;32;20018;-69
2021/11/23 06:25:24;;;;;;;6.93;3.72;;;;;;;13.57;44.55;102349.34;4428428;32;20069;-70
2021/11/23 06:27:50;;;;;;;6.12;2.60;;;;;;;13.68;44.48;102356.50;4423604;32;20037;-70
2021/11/23 06:30:17;;;;;;;5.80;2.85;;;;;;;13.78;43.64;102358.38;4425175;32;20407;-70
2021/11/23 06:32:42;;;;;;;9.15;3.50;;;;;;;14.06;43.54;102355.22;4427037;32;20107;-70
2021/11/23 06:35:09;;;;;;;6.05;2.87;;;;;;;14.03;43.40;102355.28;4426275;32;20100;-70
2021/11/23 06:37:35;;;;;;;6.47;3.03;;;;;;;14.14;43.53;102353.09;4424872;32;20145;-70
2021/11/23 06:40:02;;;;;;;13.07;3.83;;;;;;;14.19;43.38;102357.47;4425338;32;20073;-70
2021/11/23 06:42:28;;;;;;;12.15;3.95;;;;;;;14.18;43.42;102368.03;4427277;32;20620;-70
2021/11/23 06:44:54;;;;;;;7.60;3.05;;;;;;;14.25;42.92;102356.63;4427707;32;20336;-70
2021/11/23 06:47:20;;;;;;;10.55;3.78;;;;;;;14.29;43.16;102357.38;4425001;32;20130;-70
2021/11/23 06:49:45;;;;;;;8.35;4.03;;;;;;;14.40;42.85;102360.06;4426532;32;20029;-70
2021/11/23 06:52:12;;;;;;;13.13;4.40;;;;;;;14.52;43.22;102365.16;4425636;32;20098;-70
2021/11/23 06:54:38;;;;;;;7.97;3.10;;;;;;;14.65;42.69;102360.50;4427811;32;20065;-70
2021/11/23 06:57:04;;;;;;;8.73;3.80;;;;;;;14.66;42.83;102360.06;4420707;32;20177;-70
2021/11/23 06:59:30;;;;;;;9.20;3.95;;;;;;;14.90;42.33;102363.75;4424023;32;20073;-70
2021/11/23 07:01:56;;;;;;;8.73;3.62;;;;;;;14.81;42.46;102372.00;4423581;32;20042;-70
2021/11/23 07:04:21;;;;;;;10.23;4.68;;;;;;;14.72;43.06;102369.69;4428447;32;20095;-70
2021/11/23 07:06:48;;;;;;;9.57;4.07;;;;;;;14.92;42.90;102364.12;4421268;32;20084;-70
2021/11/23 07:09:16;;;;;;;13.20;4.65;;;;;;;14.89;42.96;102377.16;4423365;32;20424;-70
2021/11/23 07:11:42;;;;;;;13.15;4.95;;;;;;;14.99;42.98;102381.84;4425598;32;20042;-70
2021/11/23 07:14:08;;;;;;;11.10;5.25;;;;;;;15.06;42.75;102372.41;4426327;32;20415;-70
2021/11/23 07:16:34;;;;;;;11.45;5.43;;;;;;;15.17;42.56;102373.03;4422931;32;20077;-70
2021/11/23 07:19:00;;;;;;;13.25;5.20;;;;;;;15.30;42.50;102374.00;4423285;32;20062;-70
2021/11/23 07:21:28;;;;;;;12.68;4.95;;;;;;;15.24;42.46;102367.22;4422438;32;20049;-70
2021/11/23 07:23:57;;;;;;;8.38;4.57;;;;;;;15.35;42.53;102371.50;4426719;32;20017;-70
2021/11/23 07:26:23;;;;;;;11.95;4.85;;;;;;;15.44;42.70;102376.66;4427380;32;20463;-70
2021/11/23 07:28:53;;;;;;;15.38;5.62;;;;;;;15.39;42.74;102369.44;4421418;32;20122;-70
2021/11/23 07:31:19;;;;;;;9.52;4.80;;;;;;;15.41;42.92;102374.66;4423989;32;20228;-70
2021/11/23 07:33:44;;;;;;;10.27;4.50;;;;;;;15.47;42.56;102379.41;4428394;32;20063;-70
2021/11/23 07:36:10;;;;;;;9.32;4.68;;;;;;;15.53;42.67;102383.34;4425744;32;20402;-70
2021/11/23 07:38:36;;;;;;;14.10;4.78;;;;;;;15.60;42.89;102383.22;4425471;32;20073;-70
2021/11/23 07:41:01;;;;;;;12.43;4.93;;;;;;;15.43;43.56;102384.34;4424102;32;20037;-70
2021/11/23 07:43:27;;;;;;;11.55;5.22;;;;;;;15.59;42.73;102390.13;4423180;32;20064;-70
2021/11/23 07:45:53;;;;;;;14.68;5.32;;;;;;;15.74;43.21;102394.31;4419628;32;20169;-70
2021/11/23 07:48:18;;;;;;;17.17;5.80;;;;;;;15.93;42.89;102395.56;4420576;32;20096;-70
2021/11/23 07:50:44;;;;;;;10.73;5.18;;;;;;;15.89;43.02;102394.81;4420289;32;20060;-70
2021/11/23 07:53:10;;;;;;;18.37;6.05;;;;;;;15.84;42.89;102384.00;4415278;32;20088;-70
2021/11/23 07:55:35;;;;;;;18.40;6.68;;;;;;;15.88;42.98;102385.53;4411210;32;20066;-70
2021/11/23 07:58:02;;;;;;;13.68;6.03;;;;;;;15.97;42.97;102384.94;4417279;32;20399;-70
2021/11/23 08:00:29;;;;;;;11.18;5.82;;;;;;;16.09;42.85;102386.31;4410730;32;20127;-70
2021/11/23 08:02:55;;;;;;;21.58;6.32;;;;;;;16.08;42.73;102388.38;4414872;32;20085;-71
2021/11/23 08:05:22;;;;;;;15.85;6.22;;;;;;;16.15;42.85;102388.22;4411057;32;20073;-71
2021/11/23 08:07:47;;;;;;;18.95;6.90;;;;;;;16.05;43.21;102383.56;4414531;32;20472;-70
2021/11/23 08:10:13;;;;;;;20.20;7.93;;;;;;;15.92;43.61;102391.12;4412131;32;20116;-70
2021/11/23 08:12:39;;;;;;;11.77;6.72;;;;;;;16.05;43.55;102394.94;4413569;32;20077;-70
2021/11/23 08:15:06;;;;;;;15.82;7.78;;;;;;;16.05;43.77;102383.56;4412603;32;20157;-70
2021/11/23 08:17:32;;;;;;;14.90;6.60;;;;;;;16.11;43.61;102386.69;4412502;32;20119;-71
2021/11/23 08:19:58;;;;;;;16.10;7.85;;;;;;;16.30;44.52;102386.69;4414262;32;20073;-71
2021/11/23 08:22:24;;;;;;;10.90;5.57;;;;;;;16.44;44.35;102394.91;4413683;32;20213;-71
2021/11/23 08:24:50;;;;;;;13.55;7.15;;;;;;;16.67;44.45;102394.81;4418512;32;20136;-71
2021/11/23 08:27:16;;;;;;;10.90;5.85;;;;;;;16.59;44.86;102401.09;4411156;32;20430;-71
2021/11/23 08:29:42;;;;;;;10.10;5.75;;;;;;;16.90;44.38;102400.34;4420574;32;20107;-71
2021/11/23 08:32:08;;;;;;;12.18;6.97;;;;;;;16.84;44.40;102398.50;4416368;32;20021;-70
2021/11/23 08:34:34;;;;;;;11.20;7.72;;;;;;;17.22;43.82;102414.62;4415189;32;20122;-70
2021/11/23 08:37:00;;;;;;;15.02;9.52;;;;;;;17.13;43.88;102410.78;4418633;32;20432;-70
2021/11/23 08:39:26;;;;;;;13.07;7.32;;;;;;;17.10;43.74;102405.97;4419400;32;20577;-70
2021/11/23 08:41:52;;;;;;;8.38;6.47;;;;;;;17.04;43.81;102404.91;4411430;32;20126;-70
2021/11/23 08:44:18;;;;;;;9.07;6.40;;;;;;;17.05;43.76;102413.00;4414203;32;20099;-70
2021/11/23 08:46:45;;;;;;;10.65;6.20;;;;;;;16.98;43.76;102410.34;4415948;32;20089;-70
2021/11/23 08:49:11;;;;;;;7.85;4.97;;;;;;;16.91;43.93;102407.62;4418570;32;20686;-70
2021/11/23 08:51:38;;;;;;;7.53;4.53;;;;;;;16.69;44.18;102402.91;4413247;32;20077;-69
2021/11/23 08:54:05;;;;;;;10.00;4.50;;;;;;;16.65;44.08;102394.44;4415030;32;21241;-69
2021/11/23 08:56:38;;;;;;;6.35;4.18;;;;;;;16.97;43.72;102405.87;4413157;32;20081;-69
2021/11/23 08:59:10;;;;;;;9.65;4.93;;;;;;;17.07;43.60;102407.69;4414133;32;20073;-69
2021/11/23 09:01:36;;;;;;;5.18;3.45;;;;;;;17.26;43.38;102408.81;4412888;32;20088;-70
2021/11/23 09:04:04;;;;;;;8.55;3.62;;;;;;;17.12;43.10;102412.03;4419199;32;20074;-70
2021/11/23 09:06:33;;;;;;;7.95;3.97;;;;;;;17.43;42.55;102421.84;4414569;32;20056;-70
2021/11/23 09:08:59;;;;;;;6.15;3.58;;;;;;;17.78;42.07;102418.06;4414153;32;20163;-69
2021/11/23 09:11:26;;;;;;;5.93;3.20;;;;;;;17.87;41.70;102415.38;4413788;32;20079;-70
2021/11/23 09:13:55;;;;;;;6.97;3.00;;;;;;;18.37;41.14;102414.75;4416506;32;20517;-70
2021/11/23 09:16:22;;;;;;;8.25;3.25;;;;;;;18.20;41.02;102414.03;4418119;32;20611;-70
2021/11/23 09:18:48;;;;;;;5.15;3.60;;;;;;;18.50;40.46;102410.69;4417000;32;20083;-70
2021/11/23 09:21:14;;;;;;;5.05;3.22;;;;;;;18.03;40.93;102415.31;4416802;32;20076;-70
2021/11/23 09:23:41;;;;;;;6.32;3.33;;;;;;;18.05;40.54;102409.16;4415822;32;21435;-69
2021/11/23 09:26:09;;;;;;;7.72;2.97;;;;;;;18.34;40.37;102424.19;4417658;32;20070;-69
2021/11/23 09:28:36;;;;;;;10.15;3.47;;;;;;;18.15;40.59;102410.91;4410406;32;20107;-69
2021/11/23 09:31:03;;;;;;;4.60;2.78;;;;;;;18.01;40.82;102414.97;4413624;32;20072;-69
2021/11/23 09:33:28;;;;;;;5.68;3.30;;;;;;;17.46;42.21;102420.97;4417392;32;20103;-68
2021/11/23 09:35:54;;;;;;;5.12;2.55;;;;;;;17.48;41.66;102419.25;4420928;32;20042;-69
2021/11/23 09:38:20;;;;;;;3.25;2.08;;;;;;;17.91;41.16;102421.75;4419434;32;20131;-68
2021/11/23 09:40:46;;;;;;;5.45;2.53;;;;;;;17.91;41.37;102420.97;4414911;32;20354;-69
2021/11/23 09:43:11;;;;;;;7.15;2.40;;;;;;;18.02;41.17;102430.00;4411546;32;20138;-69
2021/11/23 09:45:38;;;;;;;2.83;2.00;;;;;;;17.53;41.86;102427.28;4414241;32;20084;-69
2021/11/23 09:48:07;;;;;;;4.68;2.17;;;;;;;17.72;41.72;102422.69;4411330;32;20093;-69
2021/11/23 09:50:38;;;;;;;2.30;1.40;;;;;;;17.54;42.31;102428.84;4407381;32;20242;-69
2021/11/23 09:53:04;;;;;;;2.65;2.08;;;;;;;17.21;43.42;102421.53;4416242;32;20073;-69
2021/11/23 09:55:30;;;;;;;2.97;1.70;;;;;;;17.58;42.67;102418.16;4417997;32;20122;-69
2021/11/23 09:57:55;;;;;;;3.37;2.00;;;;;;;17.41;42.90;102430.00;4416112;32;20085;-70
2021/11/23 10:00:26;;;;;;;1.80;1.10;;;;;;;17.85;41.95;102420.69;4415691;32;20584;-69
2021/11/23 10:02:53;;;;;;;3.17;1.20;;;;;;;18.00;41.47;102415.41;4417259;32;20600;-69
2021/11/23 10:05:21;;;;;;;2.03;1.30;;;;;;;17.47;42.36;102411.16;4409795;32;20100;-68
2021/11/23 10:07:47;;;;;;;3.62;1.30;;;;;;;17.86;41.61;102420.25;4417941;32;20480;-68
2021/11/23 10:10:19;;;;;;;2.50;1.35;;;;;;;18.17;41.17;102414.94;4418077;32;20634;-67
2021/11/23 10:15:37;;;;;;;2.70;1.33;;;;;;;18.84;39.76;102430.81;3976743;32;15049678;-70
2021/11/23 10:18:21;;;;;;;3.37;1.10;;;;;;;18.84;39.76;102430.81;4427727;32;20135;-70
2021/11/23 10:20:50;;;;;;;8.10;1.10;;;;;;;18.90;39.11;102428.22;4420788;32;20081;-71
2021/11/23 10:26:14;;;;;;;4.05;1.05;;;;;;;19.30;38.72;102420.81;3949528;32;15724615;-71
2021/11/23 10:28:45;;;;;;;2.15;0.88;;;;;;;19.30;38.72;102420.81;4425532;32;20060;-71
2021/11/23 10:31:12;;;;;;;2.72;1.20;;;;;;;19.01;39.01;102434.38;4426468;32;20130;-71
2021/11/23 10:33:39;;;;;;;1.37;0.93;;;;;;;18.50;40.22;102435.56;4425597;32;20057;-68
2021/11/23 10:36:09;;;;;;;2.00;0.95;;;;;;;18.77;39.58;102419.63;4409867;32;20046;-69
2021/11/23 10:38:37;;;;;;;3.37;1.20;;;;;;;18.52;40.25;102431.00;4410611;32;20311;-69
2021/11/23 10:41:07;;;;;;;3.17;1.05;;;;;;;18.92;39.68;102426.50;4425106;32;20995;-69
2021/11/23 10:43:33;;;;;;;2.00;1.23;;;;;;;19.06;39.04;102420.34;4425906;32;20965;-69
2021/11/23 10:45:58;;;;;;;2.05;1.30;;;;;;;18.58;40.07;102420.63;4427225;32;20049;-70
2021/11/23 10:48:26;;;;;;;3.83;1.08;;;;;;;18.58;39.82;102423.50;4425159;32;20067;-71
2021/11/23 10:51:10;;;;;;;4.07;1.20;;;;;;;19.01;39.15;102415.19;4413373;32;20067;-70
2021/11/23 10:53:39;;;;;;;4.00;1.20;;;;;;;18.75;39.68;102398.53;4424009;32;20065;-69
2021/11/23 10:58:44;;;;;;;3.87;1.42;;;;;;;19.51;38.94;102394.34;3947982;32;15725378;-70
2021/11/23 11:01:11;;;;;;;2.40;1.40;;;;;;;19.51;38.94;102394.34;4421642;32;20116;-70
2021/11/23 11:03:38;;;;;;;2.83;1.27;;;;;;;19.27;39.00;102396.03;4425315;32;20080;-70
2021/11/23 11:06:10;;;;;;;4.00;1.62;;;;;;;19.18;39.20;102393.03;4415450;32;20076;-70
2021/11/23 11:08:44;;;;;;;4.45;1.40;;;;;;;19.12;38.74;102395.66;4420286;32;20134;-70
2021/11/23 11:11:16;;;;;;;3.35;1.30;;;;;;;19.68;38.15;102396.63;4421672;32;20116;-70
2021/11/23 11:13:51;;;;;;;2.58;1.77;;;;;;;19.42;38.08;102394.28;4419597;32;20569;-70
2021/11/23 11:16:20;;;;;;;5.25;2.40;;;;;;;19.46;38.67;102387.19;4421736;32;20090;-70
2021/11/23 11:22:03;;;;;;;3.55;2.10;;;;;;;20.23;37.48;102388.50;3976741;32;15058007;-70
2021/11/23 11:30:31;;;;;;;2.22;1.73;;;;;;;19.56;38.39;102348.91;3956647;32;15039007;-70
2021/11/23 11:41:36;;;;;;;5.55;2.17;;;;;;;20.27;37.18;102366.25;3975866;32;15024570;-71
2021/11/23 11:44:20;;;;;;;3.57;2.50;;;;;;;20.28;37.13;102365.81;4427746;32;20716;-71
2021/11/23 11:47:06;;;;;;;4.55;2.50;;;;;;;19.95;37.16;102355.25;4427388;32;20179;-70